createdAt,value
2017-05-17T00:00:07.096Z,59.90
2017-05-17T00:02:35.916Z,59.30
2017-05-17T00:05:04.731Z,59.70
2017-05-17T00:07:33.564Z,60.50
2017-05-17T00:10:02.392Z,61.40
2017-05-17T00:12:31.224Z,61.80
2017-05-17T00:15:00.060Z,61.30
2017-05-17T00:17:28.894Z,61.90
2017-05-17T00:19:58.194Z,61.90
2017-05-17T00:22:27.012Z,63.30
2017-05-17T00:24:55.932Z,61.90
2017-05-17T00:27:25.502Z,62.20
2017-05-17T00:29:54.330Z,61.90
2017-05-17T00:32:23.904Z,61.60
2017-05-17T00:34:52.730Z,61.30
2017-05-17T00:37:33.640Z,61.40
2017-05-17T00:40:14.209Z,62.10
2017-05-17T00:42:54.983Z,63.10
2017-05-17T00:45:35.593Z,63.70
2017-05-17T00:48:16.546Z,63.90
2017-05-17T00:50:57.143Z,63.20
2017-05-17T00:53:25.997Z,62.50
2017-05-17T00:55:54.837Z,62.00
2017-05-17T00:58:23.687Z,62.10
2017-05-17T01:00:52.528Z,62.30
2017-05-17T01:03:21.352Z,61.80
2017-05-17T01:05:50.215Z,61.90
2017-05-17T01:08:19.051Z,62.30
2017-05-17T01:10:47.888Z,62.10
2017-05-17T01:13:16.736Z,62.10
2017-05-17T01:15:45.603Z,63.50
2017-05-17T01:18:14.762Z,65.50
2017-05-17T01:20:43.575Z,65.50
2017-05-17T01:23:12.418Z,66.10
2017-05-17T01:25:41.249Z,66.50
2017-05-17T01:28:10.099Z,65.50
2017-05-17T01:30:38.919Z,65.50
2017-05-17T01:33:07.770Z,65.30
2017-05-17T01:35:36.602Z,64.60
2017-05-17T01:38:05.424Z,65.10
2017-05-17T01:40:34.252Z,65.30
2017-05-17T01:43:03.080Z,65.40
2017-05-17T01:45:32.268Z,65.00
2017-05-17T01:48:01.084Z,64.90
2017-05-17T01:50:29.931Z,65.00
2017-05-17T01:52:58.772Z,64.60
2017-05-17T01:55:27.611Z,64.80
2017-05-17T01:57:56.451Z,65.00
2017-05-17T02:00:25.276Z,64.80
2017-05-17T02:02:54.133Z,65.20
2017-05-17T02:05:22.962Z,64.90
2017-05-17T02:07:51.819Z,64.90
2017-05-17T02:10:20.644Z,64.40
2017-05-17T02:12:49.480Z,64.30
2017-05-17T02:15:18.316Z,64.00
2017-05-17T02:17:47.135Z,63.60
2017-05-17T02:20:15.996Z,63.60
2017-05-17T02:22:44.864Z,64.30
2017-05-17T02:25:13.691Z,64.30
2017-05-17T02:27:42.532Z,65.30
2017-05-17T02:30:11.386Z,65.60
2017-05-17T02:32:40.243Z,65.50
2017-05-17T02:35:09.219Z,67.80
2017-05-17T02:37:38.794Z,67.40
2017-05-17T02:40:07.634Z,67.10
2017-05-17T02:42:36.511Z,67.20
2017-05-17T02:45:05.347Z,67.60
2017-05-17T02:47:34.184Z,68.50
2017-05-17T02:50:03.018Z,70.00
2017-05-17T02:52:31.857Z,70.80
2017-05-17T02:55:01.432Z,69.60
2017-05-17T02:57:30.275Z,69.70
2017-05-17T02:59:59.122Z,69.20
2017-05-17T03:02:28.009Z,69.00
2017-05-17T03:04:56.911Z,68.30
2017-05-17T03:07:26.486Z,69.20
2017-05-17T03:09:55.387Z,68.30
2017-05-17T03:12:24.233Z,68.80
2017-05-17T03:14:53.163Z,68.40
2017-05-17T03:17:21.999Z,68.20
2017-05-17T03:19:50.892Z,68.00
2017-05-17T03:22:19.735Z,68.40
2017-05-17T03:24:48.582Z,68.30
2017-05-17T03:27:17.425Z,68.10
2017-05-17T03:29:46.468Z,68.30
2017-05-17T03:32:15.328Z,68.20
2017-05-17T03:34:44.161Z,68.10
2017-05-17T03:37:12.992Z,68.40
2017-05-17T03:39:41.839Z,68.10
2017-05-17T03:42:10.677Z,67.80
2017-05-17T03:44:39.515Z,69.60
2017-05-17T03:47:08.570Z,70.20
2017-05-17T03:49:37.412Z,69.30
2017-05-17T03:52:06.265Z,69.00
2017-05-17T03:54:35.113Z,68.80
2017-05-17T03:57:03.952Z,68.80
2017-05-17T03:59:32.788Z,68.30
2017-05-17T04:02:01.652Z,68.60
2017-05-17T04:04:30.822Z,68.70
2017-05-17T04:06:59.675Z,68.70
2017-05-17T04:09:28.544Z,69.60
2017-05-17T04:11:57.378Z,69.00
2017-05-17T04:14:26.232Z,69.90
2017-05-17T04:16:55.076Z,70.60
2017-05-17T04:19:23.928Z,71.70
2017-05-17T04:21:52.767Z,72.20
2017-05-17T04:24:21.604Z,71.80
2017-05-17T04:26:50.470Z,71.00
2017-05-17T04:29:19.329Z,69.80
2017-05-17T04:31:48.187Z,68.60
2017-05-17T04:34:17.085Z,67.50
2017-05-17T04:36:45.920Z,66.80
2017-05-17T04:39:14.766Z,65.50
2017-05-17T04:41:43.595Z,65.10
2017-05-17T04:44:12.425Z,64.50
2017-05-17T04:46:41.275Z,64.40
2017-05-17T04:49:10.103Z,64.30
2017-05-17T04:51:38.954Z,63.80
2017-05-17T04:54:07.798Z,63.40
2017-05-17T04:56:36.666Z,62.90
2017-05-17T04:59:05.507Z,62.80
2017-05-17T05:01:34.330Z,62.50
2017-05-17T05:04:03.167Z,61.60
2017-05-17T05:06:32.018Z,60.90
2017-05-17T05:09:00.856Z,60.90
2017-05-17T05:11:29.679Z,61.70
2017-05-17T05:13:58.527Z,60.30
2017-05-17T05:16:27.355Z,58.30
2017-05-17T05:18:56.184Z,58.40
2017-05-17T05:21:25.031Z,58.40
2017-05-17T05:23:53.876Z,57.50
2017-05-17T05:26:22.711Z,55.60
2017-05-17T05:28:51.583Z,54.50
2017-05-17T05:31:20.442Z,53.90
2017-05-17T05:33:49.385Z,53.40
2017-05-17T05:36:18.270Z,53.30
2017-05-17T05:38:47.103Z,53.00
2017-05-17T05:41:15.923Z,52.70
2017-05-17T05:43:44.776Z,52.50
2017-05-17T05:46:13.583Z,52.60
2017-05-17T05:48:42.440Z,51.40
2017-05-17T05:51:11.290Z,51.30
2017-05-17T05:53:40.136Z,51.20
2017-05-17T05:56:08.989Z,50.60
2017-05-17T05:58:37.816Z,50.20
2017-05-17T06:01:06.632Z,50.20
2017-05-17T06:03:35.473Z,50.20
2017-05-17T06:06:04.301Z,50.40
2017-05-17T06:08:33.149Z,50.20
2017-05-17T06:11:01.216Z,50.20
2017-05-17T06:13:30.044Z,49.50
2017-05-17T06:15:58.880Z,48.00
2017-05-17T06:18:27.722Z,49.50
2017-05-17T06:20:56.584Z,48.70
2017-05-17T06:23:25.404Z,47.20
2017-05-17T06:25:54.240Z,47.10
2017-05-17T06:28:23.104Z,48.00
2017-05-17T06:30:51.955Z,47.40
2017-05-17T06:33:21.547Z,44.90
2017-05-17T06:35:50.405Z,43.70
2017-05-17T06:38:19.300Z,42.70
2017-05-17T06:40:48.415Z,42.00
2017-05-17T06:43:17.313Z,43.40
2017-05-17T06:45:46.160Z,40.60
2017-05-17T06:48:14.983Z,40.10
2017-05-17T06:50:43.813Z,39.70
2017-05-17T06:53:12.871Z,40.80
2017-05-17T06:55:41.701Z,41.80
2017-05-17T06:58:10.529Z,42.00
2017-05-17T07:00:39.367Z,41.60
2017-05-17T07:03:08.196Z,42.70
2017-05-17T07:05:37.048Z,42.80
2017-05-17T07:08:05.859Z,41.50
2017-05-17T07:10:34.723Z,41.50
2017-05-17T07:13:03.560Z,40.60
2017-05-17T07:15:32.404Z,41.40
2017-05-17T07:18:01.250Z,41.70
2017-05-17T07:20:30.069Z,41.30
2017-05-17T07:22:58.913Z,41.00
2017-05-17T07:25:27.745Z,40.40
2017-05-17T07:27:56.568Z,41.80
2017-05-17T07:30:25.397Z,42.00
2017-05-17T07:32:54.258Z,41.80
2017-05-17T07:35:23.107Z,40.40
2017-05-17T07:37:51.928Z,39.50
2017-05-17T07:40:20.756Z,38.60
2017-05-17T07:42:49.609Z,39.10
2017-05-17T07:45:18.427Z,40.30
2017-05-17T07:47:47.271Z,39.90
2017-05-17T07:50:16.105Z,40.70
2017-05-17T07:52:44.948Z,38.90
2017-05-17T07:55:13.795Z,41.40
2017-05-17T07:57:42.633Z,39.50
2017-05-17T08:00:11.683Z,40.70
2017-05-17T08:02:40.495Z,39.10
2017-05-17T08:05:09.334Z,38.70
2017-05-17T08:07:38.165Z,38.70
2017-05-17T08:10:07.012Z,37.90
2017-05-17T08:12:35.870Z,38.80
2017-05-17T08:15:04.696Z,39.40
2017-05-17T08:17:33.518Z,36.40
2017-05-17T08:20:02.353Z,37.40
2017-05-17T08:22:31.176Z,37.00
2017-05-17T08:25:00.030Z,36.00
2017-05-17T08:27:28.871Z,36.00
2017-05-17T08:29:57.722Z,35.20
2017-05-17T08:32:26.564Z,32.30
2017-05-17T08:34:55.397Z,34.50
2017-05-17T08:37:24.242Z,34.60
2017-05-17T08:39:53.061Z,35.30
2017-05-17T08:42:21.899Z,36.70
2017-05-17T08:44:50.729Z,36.00
2017-05-17T08:47:19.549Z,36.10
2017-05-17T08:49:48.407Z,35.30
2017-05-17T08:52:17.261Z,33.20
2017-05-17T08:54:46.103Z,34.00
2017-05-17T08:57:14.939Z,34.10
2017-05-17T08:59:43.787Z,33.20
2017-05-17T09:02:12.617Z,32.60
2017-05-17T09:04:41.436Z,32.00
2017-05-17T09:07:10.286Z,31.70
2017-05-17T09:09:39.109Z,31.90
2017-05-17T09:12:07.930Z,31.80
2017-05-17T09:14:36.770Z,30.80
2017-05-17T09:17:05.584Z,29.70
2017-05-17T09:19:34.454Z,30.10
2017-05-17T09:22:03.282Z,30.00
2017-05-17T09:24:32.113Z,29.60
2017-05-17T09:27:00.967Z,29.20
2017-05-17T09:29:29.783Z,29.70
2017-05-17T09:31:58.666Z,30.00
2017-05-17T09:34:27.485Z,31.50
2017-05-17T09:36:56.308Z,31.20
2017-05-17T09:39:25.537Z,31.10
2017-05-17T09:41:54.367Z,31.40
2017-05-17T09:44:23.208Z,31.70
2017-05-17T09:46:52.039Z,30.60
2017-05-17T09:49:20.855Z,29.70
2017-05-17T09:51:49.708Z,29.70
2017-05-17T09:54:18.555Z,30.00
2017-05-17T09:56:47.387Z,29.90
2017-05-17T09:59:16.232Z,29.60
2017-05-17T10:01:45.083Z,30.20
2017-05-17T10:04:13.903Z,29.40
2017-05-17T10:06:42.730Z,31.40
2017-05-17T10:09:11.562Z,31.10
2017-05-17T10:11:40.391Z,29.20
2017-05-17T10:14:09.222Z,28.20
2017-05-17T10:16:38.045Z,27.70
2017-05-17T10:19:06.879Z,28.10
2017-05-17T10:21:35.726Z,28.90
2017-05-17T10:24:04.564Z,28.50
2017-05-17T10:26:33.421Z,27.50
2017-05-17T10:29:02.647Z,27.70
2017-05-17T10:31:31.479Z,28.40
2017-05-17T10:34:00.330Z,30.10
2017-05-17T10:36:29.155Z,29.80
2017-05-17T10:38:58.008Z,30.00
2017-05-17T10:41:26.847Z,29.30
2017-05-17T10:43:55.697Z,28.50
2017-05-17T10:46:24.550Z,27.70
2017-05-17T10:48:53.381Z,28.20
2017-05-17T10:51:22.183Z,29.20
2017-05-17T10:53:51.041Z,30.00
2017-05-17T10:56:19.885Z,28.70
2017-05-17T10:58:48.727Z,28.40
2017-05-17T11:01:17.596Z,28.80
2017-05-17T11:03:46.413Z,29.10
2017-05-17T11:06:15.258Z,29.00
2017-05-17T11:08:44.084Z,28.60
2017-05-17T11:11:12.928Z,28.70
2017-05-17T11:13:41.778Z,28.80
2017-05-17T11:16:10.605Z,28.50
2017-05-17T11:18:39.435Z,28.40
2017-05-17T11:21:08.280Z,29.20
2017-05-17T11:23:37.111Z,28.10
2017-05-17T11:26:05.962Z,28.30
2017-05-17T11:28:34.781Z,29.00
2017-05-17T11:31:03.609Z,30.00
2017-05-17T11:33:32.425Z,30.00
2017-05-17T11:36:01.291Z,30.40
2017-05-17T11:38:30.135Z,30.60
2017-05-17T11:40:58.965Z,30.90
2017-05-17T11:43:27.820Z,32.00
2017-05-17T11:45:56.643Z,30.30
2017-05-17T11:48:25.507Z,29.20
2017-05-17T11:50:57.344Z,30.30
2017-05-17T11:53:26.296Z,29.20
2017-05-17T11:55:55.157Z,28.50
2017-05-17T11:58:24.043Z,27.90
2017-05-17T12:00:52.881Z,28.80
2017-05-17T12:03:21.743Z,30.20
2017-05-17T12:05:50.831Z,28.50
2017-05-17T12:08:20.047Z,29.10
2017-05-17T12:10:48.860Z,28.40
2017-05-17T12:13:17.704Z,30.00
2017-05-17T12:15:46.523Z,28.10
2017-05-17T12:18:15.396Z,28.10
2017-05-17T12:20:44.212Z,29.20
2017-05-17T12:23:13.031Z,29.70
2017-05-17T12:25:41.887Z,29.70
2017-05-17T12:28:10.731Z,28.90
2017-05-17T12:30:39.581Z,28.40
2017-05-17T12:33:08.415Z,27.50
2017-05-17T12:35:37.232Z,28.20
2017-05-17T12:38:06.091Z,29.30
2017-05-17T12:40:34.920Z,28.00
2017-05-17T12:43:03.765Z,28.00
2017-05-17T12:45:32.631Z,28.30
2017-05-17T12:48:01.451Z,28.30
2017-05-17T12:50:30.301Z,27.80
2017-05-17T12:52:59.115Z,29.00
2017-05-17T12:55:27.973Z,30.00
2017-05-17T12:57:56.798Z,29.30
2017-05-17T13:00:25.623Z,30.00
2017-05-17T13:02:54.451Z,28.90
2017-05-17T13:05:23.273Z,28.20
2017-05-17T13:07:52.117Z,29.40
2017-05-17T13:10:20.958Z,28.70
2017-05-17T13:12:49.790Z,29.20
2017-05-17T13:15:18.617Z,28.50
2017-05-17T13:17:47.459Z,28.50
2017-05-17T13:20:16.319Z,28.20
2017-05-17T13:22:45.680Z,28.70
2017-05-17T13:25:14.497Z,29.30
2017-05-17T13:27:43.347Z,29.50
2017-05-17T13:30:12.169Z,29.80
2017-05-17T13:32:41.024Z,29.70
2017-05-17T13:35:09.847Z,29.70
2017-05-17T13:37:38.673Z,29.60
2017-05-17T13:40:07.505Z,29.30
2017-05-17T13:42:36.326Z,29.20
2017-05-17T13:45:05.173Z,29.30
2017-05-17T13:47:33.995Z,30.30
2017-05-17T13:50:02.834Z,30.20
2017-05-17T13:52:31.668Z,30.60
2017-05-17T13:55:00.520Z,30.60
2017-05-17T13:57:29.380Z,31.40
2017-05-17T13:59:58.224Z,30.80
2017-05-17T14:02:27.068Z,30.80
2017-05-17T14:04:55.903Z,31.20
2017-05-17T14:07:24.751Z,32.00
2017-05-17T14:09:53.599Z,31.30
2017-05-17T14:12:22.497Z,31.60
2017-05-17T14:14:51.279Z,32.20
2017-05-17T14:17:20.105Z,31.90
2017-05-17T14:19:48.935Z,31.60
2017-05-17T14:22:17.791Z,33.00
2017-05-17T14:24:46.637Z,32.90
2017-05-17T14:27:15.463Z,32.80
2017-05-17T14:29:44.293Z,32.50
2017-05-17T14:32:13.115Z,32.40
2017-05-17T14:34:41.972Z,32.10
2017-05-17T14:37:10.809Z,32.80
2017-05-17T14:39:39.631Z,33.80
2017-05-17T14:42:08.468Z,32.80
2017-05-17T14:44:37.301Z,33.30
2017-05-17T14:47:06.132Z,33.00
2017-05-17T14:49:34.968Z,33.70
2017-05-17T14:52:03.813Z,33.30
2017-05-17T14:54:32.644Z,34.20
2017-05-17T14:57:01.469Z,34.00
2017-05-17T14:59:30.316Z,34.10
2017-05-17T15:01:59.142Z,34.10
2017-05-17T15:04:27.999Z,34.50
2017-05-17T15:06:57.085Z,34.60
2017-05-17T15:09:25.884Z,34.40
2017-05-17T15:11:54.715Z,33.90
2017-05-17T15:14:24.418Z,33.90
2017-05-17T15:16:53.301Z,33.70
2017-05-17T15:19:22.133Z,33.00
2017-05-17T15:21:51.043Z,33.70
2017-05-17T15:24:19.981Z,33.60
2017-05-17T15:26:49.668Z,34.60
2017-05-17T15:29:18.523Z,34.20
2017-05-17T15:31:47.348Z,33.30
2017-05-17T15:34:16.184Z,34.20
2017-05-17T15:36:45.012Z,33.70
2017-05-17T15:39:13.825Z,33.40
2017-05-17T15:41:42.677Z,33.30
2017-05-17T15:44:11.497Z,33.90
2017-05-17T15:46:40.325Z,35.10
2017-05-17T15:49:09.154Z,34.50
2017-05-17T15:51:37.968Z,34.90
2017-05-17T15:54:06.800Z,35.50
2017-05-17T15:56:35.620Z,34.30
2017-05-17T15:59:04.444Z,34.40
2017-05-17T16:01:33.282Z,34.30
2017-05-17T16:04:02.098Z,34.50
2017-05-17T16:06:30.919Z,35.10
2017-05-17T16:08:59.774Z,34.40
2017-05-17T16:11:28.591Z,34.20
2017-05-17T16:13:57.449Z,34.30
2017-05-17T16:16:26.280Z,34.20
2017-05-17T16:18:55.110Z,35.10
2017-05-17T16:21:23.945Z,34.90
2017-05-17T16:23:52.792Z,35.10
2017-05-17T16:26:21.640Z,35.50
2017-05-17T16:28:50.484Z,35.00
2017-05-17T16:31:19.315Z,34.90
2017-05-17T16:33:48.145Z,35.00
2017-05-17T16:36:16.960Z,34.80
2017-05-17T16:38:46.654Z,34.10
2017-05-17T16:41:15.491Z,34.50
2017-05-17T16:43:44.332Z,34.40
2017-05-17T16:46:13.177Z,34.70
2017-05-17T16:48:41.989Z,34.90
2017-05-17T16:51:10.805Z,35.20
2017-05-17T16:53:39.650Z,35.40
2017-05-17T16:56:08.478Z,35.20
2017-05-17T16:58:37.327Z,35.50
2017-05-17T17:01:06.187Z,35.70
2017-05-17T17:03:35.005Z,36.30
2017-05-17T17:06:03.833Z,36.10
2017-05-17T17:08:32.769Z,36.20
2017-05-17T17:11:01.579Z,36.80
2017-05-17T17:13:30.420Z,37.40
2017-05-17T17:15:59.261Z,37.40
2017-05-17T17:18:28.079Z,37.40
2017-05-17T17:20:56.902Z,36.90
2017-05-17T17:23:25.753Z,37.80
2017-05-17T17:25:54.575Z,38.20
2017-05-17T17:28:23.416Z,38.20
2017-05-17T17:30:52.271Z,37.10
2017-05-17T17:33:21.093Z,37.30
2017-05-17T17:35:49.941Z,37.00
2017-05-17T17:38:18.767Z,37.20
2017-05-17T17:40:47.583Z,36.80
2017-05-17T17:43:16.398Z,37.30
2017-05-17T17:45:45.235Z,37.10
2017-05-17T17:48:14.061Z,37.60
2017-05-17T17:50:42.884Z,37.80
2017-05-17T17:53:11.726Z,38.10
2017-05-17T17:55:40.543Z,38.50
2017-05-17T17:58:09.392Z,39.10
2017-05-17T18:00:38.298Z,39.20
2017-05-17T18:03:07.150Z,39.80
2017-05-17T18:05:35.969Z,40.00
2017-05-17T18:08:04.812Z,40.30
2017-05-17T18:10:33.628Z,40.40
2017-05-17T18:13:02.511Z,40.00
2017-05-17T18:15:31.367Z,40.80
2017-05-17T18:18:00.183Z,40.70
2017-05-17T18:20:29.017Z,40.90
2017-05-17T18:22:57.852Z,41.20
2017-05-17T18:25:26.664Z,41.20
2017-05-17T18:27:55.500Z,41.30
2017-05-17T18:30:24.331Z,41.50
2017-05-17T18:32:53.168Z,41.70
2017-05-17T18:35:22.011Z,41.80
2017-05-17T18:37:50.828Z,42.00
2017-05-17T18:40:19.677Z,42.40
2017-05-17T18:42:48.506Z,42.70
2017-05-17T18:45:17.349Z,42.80
2017-05-17T18:47:46.165Z,43.10
2017-05-17T18:50:15.005Z,43.50
2017-05-17T18:52:43.847Z,43.60
2017-05-17T18:55:12.693Z,44.00
2017-05-17T18:57:41.522Z,44.00
2017-05-17T19:00:10.368Z,44.20
2017-05-17T19:02:39.190Z,44.70
2017-05-17T19:05:08.050Z,45.00
2017-05-17T19:07:36.873Z,45.10
2017-05-17T19:10:05.687Z,45.30
2017-05-17T19:12:34.552Z,45.50
2017-05-17T19:15:03.378Z,45.70
2017-05-17T19:17:32.193Z,46.10
2017-05-17T19:20:01.045Z,46.20
2017-05-17T19:22:29.864Z,46.60
2017-05-17T19:24:58.692Z,46.70
2017-05-17T19:27:27.515Z,46.80
2017-05-17T19:29:56.354Z,46.90
2017-05-17T19:32:25.164Z,47.10
2017-05-17T19:34:54.015Z,47.40
2017-05-17T19:37:22.837Z,47.40
2017-05-17T19:39:51.694Z,47.70
2017-05-17T19:42:20.512Z,47.70
2017-05-17T19:44:49.332Z,48.00
2017-05-17T19:47:18.172Z,48.00
2017-05-17T19:49:47.002Z,47.90
2017-05-17T19:52:15.907Z,48.00
2017-05-17T19:54:44.770Z,48.10
2017-05-17T19:57:13.547Z,48.00
2017-05-17T19:59:42.384Z,48.10
2017-05-17T20:02:11.200Z,48.20
2017-05-17T20:04:40.051Z,48.60
2017-05-17T20:07:08.892Z,49.00
2017-05-17T20:09:37.986Z,49.50
2017-05-17T20:12:06.799Z,49.30
2017-05-17T20:14:35.641Z,49.20
2017-05-17T20:17:04.510Z,49.30
2017-05-17T20:19:33.339Z,49.20
2017-05-17T20:22:02.203Z,49.20
2017-05-17T20:24:31.032Z,49.20
2017-05-17T20:26:59.847Z,49.30
2017-05-17T20:29:28.671Z,49.00
2017-05-17T20:31:57.493Z,49.30
2017-05-17T20:34:26.316Z,49.40
2017-05-17T20:36:55.166Z,48.60
2017-05-17T20:39:24.012Z,49.10
2017-05-17T20:41:52.827Z,49.60
2017-05-17T20:44:21.676Z,49.90
2017-05-17T20:46:50.511Z,49.00
2017-05-17T20:49:19.328Z,49.70
2017-05-17T20:51:48.187Z,49.70
2017-05-17T20:54:17.029Z,49.70
2017-05-17T20:56:45.859Z,51.20
2017-05-17T20:59:14.694Z,52.00
2017-05-17T21:01:43.526Z,52.60
2017-05-17T21:04:12.348Z,53.60
2017-05-17T21:06:41.171Z,53.10
2017-05-17T21:09:10.012Z,53.30
2017-05-17T21:11:38.838Z,52.40
2017-05-17T21:14:07.678Z,52.80
2017-05-17T21:16:36.499Z,52.10
2017-05-17T21:19:05.348Z,51.60
2017-05-17T21:21:34.160Z,51.40
2017-05-17T21:24:03.091Z,50.90
2017-05-17T21:26:31.924Z,51.00
2017-05-17T21:29:00.757Z,50.80
2017-05-17T21:31:29.608Z,51.10
2017-05-17T21:33:58.424Z,51.90
2017-05-17T21:36:27.265Z,51.70
2017-05-17T21:38:56.110Z,51.50
2017-05-17T21:41:24.950Z,51.00
2017-05-17T21:43:53.782Z,51.60
2017-05-17T21:46:22.613Z,52.10
2017-05-17T21:48:51.443Z,51.70
2017-05-17T21:51:20.273Z,51.90
2017-05-17T21:53:49.089Z,53.00
2017-05-17T21:56:17.915Z,53.30
2017-05-17T21:58:46.750Z,53.80
2017-05-17T22:01:15.565Z,53.70
2017-05-17T22:03:44.384Z,53.30
2017-05-17T22:06:13.216Z,52.60
2017-05-17T22:08:42.070Z,52.80
2017-05-17T22:11:10.894Z,53.10
2017-05-17T22:13:39.708Z,52.60
2017-05-17T22:16:08.555Z,52.70
2017-05-17T22:18:37.375Z,52.70
2017-05-17T22:21:06.201Z,53.60
2017-05-17T22:23:35.043Z,53.30
2017-05-17T22:26:03.879Z,53.40
2017-05-17T22:28:32.730Z,54.90
2017-05-17T22:31:01.548Z,54.20
2017-05-17T22:33:30.383Z,54.30
2017-05-17T22:35:59.229Z,54.40
2017-05-17T22:38:28.060Z,54.60
2017-05-17T22:40:56.895Z,56.30
2017-05-17T22:43:25.728Z,57.10
2017-05-17T22:45:54.567Z,57.10
2017-05-17T22:48:23.397Z,56.70
2017-05-17T22:50:52.237Z,58.30
2017-05-17T22:53:21.068Z,57.90
2017-05-17T22:55:49.926Z,57.70
2017-05-17T22:58:18.760Z,58.40
2017-05-17T23:00:47.587Z,57.70
2017-05-17T23:03:16.430Z,57.30
2017-05-17T23:05:45.262Z,57.40
2017-05-17T23:08:14.106Z,56.10
2017-05-17T23:10:42.940Z,55.80
2017-05-17T23:13:11.787Z,55.70
2017-05-17T23:15:40.602Z,55.40
2017-05-17T23:18:09.453Z,55.60
2017-05-17T23:20:38.292Z,56.80
2017-05-17T23:23:07.118Z,57.30
2017-05-17T23:25:35.968Z,56.00
2017-05-17T23:28:04.788Z,56.50
2017-05-17T23:30:33.615Z,55.60
2017-05-17T23:33:02.444Z,54.80
2017-05-17T23:35:31.289Z,54.60
2017-05-17T23:38:00.144Z,54.10
2017-05-17T23:40:28.911Z,53.90
2017-05-17T23:42:57.752Z,53.90
2017-05-17T23:45:26.571Z,54.10
2017-05-17T23:47:55.407Z,54.20
2017-05-17T23:50:24.226Z,54.60
2017-05-17T23:52:53.063Z,56.20
2017-05-17T23:55:21.876Z,57.00
2017-05-17T23:57:50.695Z,57.40
